sensor_id;sensor_type;location;lat;lon;timestamp;P1;durP1;ratioP1;P2;durP2;ratioP2
38581;SDS011;24349;53.720;10.014;2023-06-14T00:01:53;8.52;;;5.53;;
38581;SDS011;24349;53.720;10.014;2023-06-14T00:04:20;10.07;;;6.07;;
38581;SDS011;24349;53.720;10.014;2023-06-14T00:06:46;10.70;;;5.35;;
38581;SDS011;24349;53.720;10.014;2023-06-14T00:09:13;10.07;;;5.75;;
38581;SDS011;24349;53.720;10.014;2023-06-14T00:11:42;10.30;;;5.85;;
38581;SDS011;24349;53.720;10.014;2023-06-14T00:14:08;9.45;;;5.75;;
38581;SDS011;24349;53.720;10.014;2023-06-14T00:16:33;11.93;;;6.55;;
38581;SDS011;24349;53.720;10.014;2023-06-14T00:19:00;9.80;;;6.00;;
38581;SDS011;24349;53.720;10.014;2023-06-14T00:21:29;12.15;;;6.10;;
38581;SDS011;24349;53.720;10.014;2023-06-14T00:23:55;9.30;;;6.00;;
38581;SDS011;24349;53.720;10.014;2023-06-14T00:26:22;10.38;;;5.90;;
38581;SDS011;24349;53.720;10.014;2023-06-14T00:28:48;9.60;;;5.70;;
38581;SDS011;24349;53.720;10.014;2023-06-14T00:31:14;10.00;;;6.82;;
38581;SDS011;24349;53.720;10.014;2023-06-14T00:33:39;10.52;;;7.07;;
38581;SDS011;24349;53.720;10.014;2023-06-14T00:36:05;11.45;;;6.78;;
38581;SDS011;24349;53.720;10.014;2023-06-14T00:38:31;12.32;;;6.90;;
38581;SDS011;24349;53.720;10.014;2023-06-14T00:40:56;9.48;;;5.88;;
38581;SDS011;24349;53.720;10.014;2023-06-14T00:43:22;10.32;;;6.47;;
38581;SDS011;24349;53.720;10.014;2023-06-14T00:45:47;7.85;;;5.25;;
38581;SDS011;24349;53.720;10.014;2023-06-14T00:48:14;11.30;;;6.20;;
38581;SDS011;24349;53.720;10.014;2023-06-14T00:50:40;13.35;;;7.00;;
38581;SDS011;24349;53.720;10.014;2023-06-14T00:53:06;10.73;;;6.22;;
38581;SDS011;24349;53.720;10.014;2023-06-14T00:55:32;10.40;;;6.22;;
38581;SDS011;24349;53.720;10.014;2023-06-14T00:57:58;9.75;;;6.00;;
38581;SDS011;24349;53.720;10.014;2023-06-14T01:00:24;9.88;;;6.57;;
38581;SDS011;24349;53.720;10.014;2023-06-14T01:02:50;14.52;;;6.80;;
38581;SDS011;24349;53.720;10.014;2023-06-14T01:05:16;12.02;;;6.45;;
38581;SDS011;24349;53.720;10.014;2023-06-14T01:13:33;9.38;;;6.05;;
38581;SDS011;24349;53.720;10.014;2023-06-14T01:16:01;8.95;;;5.63;;
38581;SDS011;24349;53.720;10.014;2023-06-14T01:18:28;8.88;;;5.97;;
38581;SDS011;24349;53.720;10.014;2023-06-14T01:20:54;11.85;;;6.28;;
38581;SDS011;24349;53.720;10.014;2023-06-14T01:23:21;10.02;;;6.75;;
38581;SDS011;24349;53.720;10.014;2023-06-14T01:25:48;9.23;;;6.25;;
38581;SDS011;24349;53.720;10.014;2023-06-14T01:28:18;9.85;;;5.32;;
38581;SDS011;24349;53.720;10.014;2023-06-14T01:30:46;11.38;;;6.78;;
38581;SDS011;24349;53.720;10.014;2023-06-14T01:33:23;11.45;;;6.75;;
38581;SDS011;24349;53.720;10.014;2023-06-14T01:35:52;10.23;;;6.45;;
38581;SDS011;24349;53.720;10.014;2023-06-14T01:38:19;8.82;;;5.88;;
38581;SDS011;24349;53.720;10.014;2023-06-14T01:40:47;11.32;;;6.30;;
38581;SDS011;24349;53.720;10.014;2023-06-14T01:43:14;10.30;;;6.40;;
38581;SDS011;24349;53.720;10.014;2023-06-14T01:45:41;9.57;;;5.53;;
38581;SDS011;24349;53.720;10.014;2023-06-14T01:48:08;12.23;;;6.60;;
38581;SDS011;24349;53.720;10.014;2023-06-14T01:50:34;9.57;;;6.22;;
38581;SDS011;24349;53.720;10.014;2023-06-14T01:53:00;8.43;;;5.97;;
38581;SDS011;24349;53.720;10.014;2023-06-14T01:55:26;12.80;;;6.68;;
38581;SDS011;24349;53.720;10.014;2023-06-14T01:57:52;9.20;;;5.80;;
38581;SDS011;24349;53.720;10.014;2023-06-14T02:00:18;10.65;;;5.80;;
38581;SDS011;24349;53.720;10.014;2023-06-14T02:02:45;11.90;;;6.80;;
38581;SDS011;24349;53.720;10.014;2023-06-14T02:05:11;12.23;;;6.50;;
38581;SDS011;24349;53.720;10.014;2023-06-14T02:07:37;11.98;;;7.10;;
38581;SDS011;24349;53.720;10.014;2023-06-14T02:10:03;14.63;;;6.18;;
38581;SDS011;24349;53.720;10.014;2023-06-14T02:12:30;11.82;;;6.22;;
38581;SDS011;24349;53.720;10.014;2023-06-14T02:14:56;11.85;;;6.90;;
38581;SDS011;24349;53.720;10.014;2023-06-14T02:17:23;10.45;;;6.45;;
38581;SDS011;24349;53.720;10.014;2023-06-14T02:19:49;11.63;;;7.18;;
38581;SDS011;24349;53.720;10.014;2023-06-14T02:22:15;10.27;;;6.75;;
38581;SDS011;24349;53.720;10.014;2023-06-14T02:24:41;10.63;;;6.68;;
38581;SDS011;24349;53.720;10.014;2023-06-14T02:27:07;11.88;;;7.20;;
38581;SDS011;24349;53.720;10.014;2023-06-14T02:29:35;10.65;;;6.20;;
38581;SDS011;24349;53.720;10.014;2023-06-14T02:32:01;9.90;;;6.13;;
38581;SDS011;24349;53.720;10.014;2023-06-14T02:34:26;10.50;;;7.18;;
38581;SDS011;24349;53.720;10.014;2023-06-14T02:36:52;13.13;;;7.88;;
38581;SDS011;24349;53.720;10.014;2023-06-14T02:39:18;15.10;;;8.43;;
38581;SDS011;24349;53.720;10.014;2023-06-14T02:41:45;14.23;;;7.93;;
38581;SDS011;24349;53.720;10.014;2023-06-14T02:44:13;13.18;;;8.60;;
38581;SDS011;24349;53.720;10.014;2023-06-14T02:46:39;14.60;;;8.90;;
38581;SDS011;24349;53.720;10.014;2023-06-14T02:49:04;12.75;;;7.70;;
38581;SDS011;24349;53.720;10.014;2023-06-14T02:51:30;10.63;;;6.82;;
38581;SDS011;24349;53.720;10.014;2023-06-14T02:53:56;12.07;;;7.40;;
38581;SDS011;24349;53.720;10.014;2023-06-14T02:56:21;15.45;;;7.72;;
38581;SDS011;24349;53.720;10.014;2023-06-14T02:58:47;12.88;;;8.90;;
38581;SDS011;24349;53.720;10.014;2023-06-14T03:01:13;14.50;;;8.95;;
38581;SDS011;24349;53.720;10.014;2023-06-14T03:03:39;12.27;;;8.98;;
38581;SDS011;24349;53.720;10.014;2023-06-14T03:06:05;12.32;;;7.15;;
38581;SDS011;24349;53.720;10.014;2023-06-14T03:08:31;12.85;;;8.48;;
38581;SDS011;24349;53.720;10.014;2023-06-14T03:11:03;14.35;;;8.13;;
38581;SDS011;24349;53.720;10.014;2023-06-14T03:13:34;13.20;;;8.32;;
38581;SDS011;24349;53.720;10.014;2023-06-14T03:16:00;13.15;;;8.25;;
38581;SDS011;24349;53.720;10.014;2023-06-14T03:18:31;13.63;;;8.63;;
38581;SDS011;24349;53.720;10.014;2023-06-14T03:21:00;15.82;;;10.70;;
38581;SDS011;24349;53.720;10.014;2023-06-14T03:23:27;13.75;;;8.02;;
38581;SDS011;24349;53.720;10.014;2023-06-14T03:25:53;10.50;;;6.72;;
38581;SDS011;24349;53.720;10.014;2023-06-14T03:28:19;15.63;;;10.20;;
38581;SDS011;24349;53.720;10.014;2023-06-14T03:30:45;13.70;;;9.40;;
38581;SDS011;24349;53.720;10.014;2023-06-14T03:33:10;15.52;;;10.07;;
38581;SDS011;24349;53.720;10.014;2023-06-14T03:35:36;13.95;;;8.95;;
38581;SDS011;24349;53.720;10.014;2023-06-14T03:38:02;14.52;;;7.88;;
38581;SDS011;24349;53.720;10.014;2023-06-14T03:40:28;15.98;;;9.50;;
38581;SDS011;24349;53.720;10.014;2023-06-14T03:42:54;13.05;;;8.10;;
38581;SDS011;24349;53.720;10.014;2023-06-14T03:45:20;12.55;;;7.53;;
38581;SDS011;24349;53.720;10.014;2023-06-14T03:47:46;12.40;;;8.50;;
38581;SDS011;24349;53.720;10.014;2023-06-14T03:50:12;13.45;;;8.88;;
38581;SDS011;24349;53.720;10.014;2023-06-14T03:52:38;11.60;;;7.43;;
38581;SDS011;24349;53.720;10.014;2023-06-14T03:55:05;14.88;;;9.38;;
38581;SDS011;24349;53.720;10.014;2023-06-14T03:57:31;18.75;;;10.38;;
38581;SDS011;24349;53.720;10.014;2023-06-14T03:59:56;11.68;;;6.75;;
38581;SDS011;24349;53.720;10.014;2023-06-14T04:02:22;14.63;;;8.00;;
38581;SDS011;24349;53.720;10.014;2023-06-14T04:04:48;14.15;;;8.90;;
38581;SDS011;24349;53.720;10.014;2023-06-14T04:07:17;17.48;;;8.98;;
38581;SDS011;24349;53.720;10.014;2023-06-14T04:09:46;14.77;;;8.63;;
38581;SDS011;24349;53.720;10.014;2023-06-14T04:12:11;11.50;;;7.35;;
38581;SDS011;24349;53.720;10.014;2023-06-14T04:14:40;13.70;;;9.32;;
38581;SDS011;24349;53.720;10.014;2023-06-14T04:17:06;11.80;;;7.30;;
38581;SDS011;24349;53.720;10.014;2023-06-14T04:19:31;12.88;;;7.78;;
38581;SDS011;24349;53.720;10.014;2023-06-14T04:21:58;11.15;;;7.47;;
38581;SDS011;24349;53.720;10.014;2023-06-14T04:24:26;13.05;;;9.05;;
38581;SDS011;24349;53.720;10.014;2023-06-14T04:26:53;12.73;;;8.32;;
38581;SDS011;24349;53.720;10.014;2023-06-14T04:29:19;13.55;;;8.25;;
38581;SDS011;24349;53.720;10.014;2023-06-14T04:31:46;9.38;;;6.72;;
38581;SDS011;24349;53.720;10.014;2023-06-14T04:34:12;13.35;;;8.57;;
38581;SDS011;24349;53.720;10.014;2023-06-14T04:36:41;15.15;;;9.50;;
38581;SDS011;24349;53.720;10.014;2023-06-14T04:39:16;13.27;;;8.73;;
38581;SDS011;24349;53.720;10.014;2023-06-14T04:41:43;12.00;;;7.13;;
38581;SDS011;24349;53.720;10.014;2023-06-14T04:44:09;11.70;;;7.55;;
38581;SDS011;24349;53.720;10.014;2023-06-14T04:46:36;12.32;;;6.13;;
38581;SDS011;24349;53.720;10.014;2023-06-14T04:49:12;12.60;;;6.75;;
38581;SDS011;24349;53.720;10.014;2023-06-14T04:51:39;12.00;;;6.93;;
38581;SDS011;24349;53.720;10.014;2023-06-14T04:54:06;12.07;;;6.82;;
38581;SDS011;24349;53.720;10.014;2023-06-14T04:56:34;11.63;;;7.80;;
38581;SDS011;24349;53.720;10.014;2023-06-14T04:59:03;10.07;;;6.28;;
38581;SDS011;24349;53.720;10.014;2023-06-14T05:01:31;13.32;;;6.95;;
38581;SDS011;24349;53.720;10.014;2023-06-14T05:03:58;14.43;;;7.35;;
38581;SDS011;24349;53.720;10.014;2023-06-14T05:06:24;10.55;;;6.95;;
38581;SDS011;24349;53.720;10.014;2023-06-14T05:08:49;12.73;;;6.55;;
38581;SDS011;24349;53.720;10.014;2023-06-14T05:11:15;11.00;;;6.68;;
38581;SDS011;24349;53.720;10.014;2023-06-14T05:13:42;11.38;;;6.38;;
38581;SDS011;24349;53.720;10.014;2023-06-14T05:16:09;10.93;;;6.32;;
38581;SDS011;24349;53.720;10.014;2023-06-14T05:18:39;9.75;;;5.85;;
38581;SDS011;24349;53.720;10.014;2023-06-14T05:21:05;13.02;;;6.28;;
38581;SDS011;24349;53.720;10.014;2023-06-14T05:23:31;8.45;;;5.43;;
38581;SDS011;24349;53.720;10.014;2023-06-14T05:25:56;10.27;;;5.40;;
38581;SDS011;24349;53.720;10.014;2023-06-14T05:28:22;10.93;;;5.45;;
38581;SDS011;24349;53.720;10.014;2023-06-14T05:30:48;9.27;;;5.30;;
38581;SDS011;24349;53.720;10.014;2023-06-14T05:33:14;11.32;;;5.80;;
38581;SDS011;24349;53.720;10.014;2023-06-14T05:35:39;10.55;;;5.10;;
38581;SDS011;24349;53.720;10.014;2023-06-14T05:38:05;9.18;;;5.55;;
38581;SDS011;24349;53.720;10.014;2023-06-14T05:40:32;9.05;;;4.70;;
38581;SDS011;24349;53.720;10.014;2023-06-14T05:42:58;8.38;;;5.20;;
38581;SDS011;24349;53.720;10.014;2023-06-14T05:45:24;10.85;;;5.63;;
38581;SDS011;24349;53.720;10.014;2023-06-14T05:47:49;9.98;;;5.55;;
38581;SDS011;24349;53.720;10.014;2023-06-14T05:50:15;9.43;;;5.00;;
38581;SDS011;24349;53.720;10.014;2023-06-14T05:52:41;8.35;;;4.57;;
38581;SDS011;24349;53.720;10.014;2023-06-14T05:55:06;10.20;;;5.30;;
38581;SDS011;24349;53.720;10.014;2023-06-14T05:57:32;8.73;;;4.72;;
38581;SDS011;24349;53.720;10.014;2023-06-14T05:59:58;9.82;;;5.05;;
38581;SDS011;24349;53.720;10.014;2023-06-14T06:02:24;9.73;;;4.75;;
38581;SDS011;24349;53.720;10.014;2023-06-14T06:04:49;8.73;;;4.32;;
38581;SDS011;24349;53.720;10.014;2023-06-14T06:07:15;8.48;;;4.22;;
38581;SDS011;24349;53.720;10.014;2023-06-14T06:09:41;8.95;;;4.07;;
38581;SDS011;24349;53.720;10.014;2023-06-14T06:12:07;9.35;;;4.05;;
38581;SDS011;24349;53.720;10.014;2023-06-14T06:14:32;6.72;;;3.58;;
38581;SDS011;24349;53.720;10.014;2023-06-14T06:16:58;7.28;;;3.80;;
38581;SDS011;24349;53.720;10.014;2023-06-14T06:19:24;6.68;;;3.70;;
38581;SDS011;24349;53.720;10.014;2023-06-14T06:21:50;7.90;;;3.53;;
38581;SDS011;24349;53.720;10.014;2023-06-14T06:24:16;6.85;;;3.30;;
38581;SDS011;24349;53.720;10.014;2023-06-14T06:26:41;7.82;;;4.00;;
38581;SDS011;24349;53.720;10.014;2023-06-14T06:29:07;7.93;;;3.22;;
38581;SDS011;24349;53.720;10.014;2023-06-14T06:31:33;6.95;;;3.25;;
38581;SDS011;24349;53.720;10.014;2023-06-14T06:33:58;7.38;;;3.42;;
38581;SDS011;24349;53.720;10.014;2023-06-14T06:36:24;6.72;;;3.72;;
38581;SDS011;24349;53.720;10.014;2023-06-14T06:38:50;7.25;;;3.40;;
38581;SDS011;24349;53.720;10.014;2023-06-14T06:41:15;6.40;;;2.97;;
38581;SDS011;24349;53.720;10.014;2023-06-14T06:43:41;9.10;;;3.03;;
38581;SDS011;24349;53.720;10.014;2023-06-14T06:46:07;7.13;;;2.90;;
38581;SDS011;24349;53.720;10.014;2023-06-14T06:48:32;8.00;;;4.13;;
38581;SDS011;24349;53.720;10.014;2023-06-14T06:50:58;7.22;;;3.10;;
38581;SDS011;24349;53.720;10.014;2023-06-14T06:53:24;5.32;;;2.92;;
38581;SDS011;24349;53.720;10.014;2023-06-14T06:55:50;6.93;;;3.58;;
38581;SDS011;24349;53.720;10.014;2023-06-14T06:58:15;11.10;;;3.65;;
38581;SDS011;24349;53.720;10.014;2023-06-14T07:00:41;8.68;;;3.00;;
38581;SDS011;24349;53.720;10.014;2023-06-14T07:03:06;6.53;;;2.90;;
38581;SDS011;24349;53.720;10.014;2023-06-14T07:05:33;7.30;;;2.95;;
38581;SDS011;24349;53.720;10.014;2023-06-14T07:07:58;5.97;;;3.00;;
38581;SDS011;24349;53.720;10.014;2023-06-14T07:10:25;7.13;;;2.70;;
38581;SDS011;24349;53.720;10.014;2023-06-14T07:12:51;5.50;;;2.83;;
38581;SDS011;24349;53.720;10.014;2023-06-14T07:15:16;9.05;;;2.90;;
38581;SDS011;24349;53.720;10.014;2023-06-14T07:17:42;6.50;;;2.83;;
38581;SDS011;24349;53.720;10.014;2023-06-14T07:20:08;7.03;;;3.00;;
38581;SDS011;24349;53.720;10.014;2023-06-14T07:22:38;4.80;;;2.40;;
38581;SDS011;24349;53.720;10.014;2023-06-14T07:25:06;5.30;;;2.47;;
38581;SDS011;24349;53.720;10.014;2023-06-14T07:27:33;5.25;;;2.50;;
38581;SDS011;24349;53.720;10.014;2023-06-14T07:29:59;4.88;;;2.50;;
38581;SDS011;24349;53.720;10.014;2023-06-14T07:32:24;6.43;;;2.70;;
38581;SDS011;24349;53.720;10.014;2023-06-14T07:34:50;7.28;;;2.70;;
38581;SDS011;24349;53.720;10.014;2023-06-14T07:37:16;5.50;;;2.70;;
38581;SDS011;24349;53.720;10.014;2023-06-14T07:39:41;6.95;;;2.88;;
38581;SDS011;24349;53.720;10.014;2023-06-14T07:42:07;5.65;;;2.35;;
38581;SDS011;24349;53.720;10.014;2023-06-14T07:44:33;5.55;;;2.60;;
38581;SDS011;24349;53.720;10.014;2023-06-14T07:46:58;5.60;;;2.40;;
38581;SDS011;24349;53.720;10.014;2023-06-14T07:49:25;5.35;;;2.50;;
38581;SDS011;24349;53.720;10.014;2023-06-14T07:51:51;5.40;;;2.50;;
38581;SDS011;24349;53.720;10.014;2023-06-14T07:54:16;6.50;;;2.80;;
38581;SDS011;24349;53.720;10.014;2023-06-14T07:56:42;5.95;;;2.47;;
38581;SDS011;24349;53.720;10.014;2023-06-14T07:59:08;6.18;;;2.75;;
38581;SDS011;24349;53.720;10.014;2023-06-14T08:01:34;5.03;;;2.47;;
38581;SDS011;24349;53.720;10.014;2023-06-14T08:04:00;7.18;;;2.83;;
38581;SDS011;24349;53.720;10.014;2023-06-14T08:06:26;7.07;;;2.50;;
38581;SDS011;24349;53.720;10.014;2023-06-14T08:08:52;6.13;;;2.97;;
38581;SDS011;24349;53.720;10.014;2023-06-14T08:11:17;5.65;;;2.70;;
38581;SDS011;24349;53.720;10.014;2023-06-14T08:13:43;6.65;;;2.75;;
38581;SDS011;24349;53.720;10.014;2023-06-14T08:16:08;6.97;;;2.50;;
38581;SDS011;24349;53.720;10.014;2023-06-14T08:18:35;6.18;;;2.55;;
38581;SDS011;24349;53.720;10.014;2023-06-14T08:21:01;5.57;;;2.80;;
38581;SDS011;24349;53.720;10.014;2023-06-14T08:23:27;6.97;;;2.72;;
38581;SDS011;24349;53.720;10.014;2023-06-14T08:25:53;5.78;;;2.42;;
38581;SDS011;24349;53.720;10.014;2023-06-14T08:28:19;5.65;;;2.80;;
38581;SDS011;24349;53.720;10.014;2023-06-14T08:30:45;6.25;;;2.65;;
38581;SDS011;24349;53.720;10.014;2023-06-14T08:33:11;5.82;;;2.85;;
38581;SDS011;24349;53.720;10.014;2023-06-14T08:35:36;6.40;;;2.80;;
38581;SDS011;24349;53.720;10.014;2023-06-14T08:38:04;5.38;;;3.08;;
38581;SDS011;24349;53.720;10.014;2023-06-14T08:40:30;5.75;;;3.00;;
38581;SDS011;24349;53.720;10.014;2023-06-14T08:42:56;7.07;;;2.90;;
38581;SDS011;24349;53.720;10.014;2023-06-14T08:45:22;8.07;;;2.65;;
38581;SDS011;24349;53.720;10.014;2023-06-14T08:47:49;6.38;;;2.83;;
38581;SDS011;24349;53.720;10.014;2023-06-14T08:50:22;7.28;;;3.10;;
38581;SDS011;24349;53.720;10.014;2023-06-14T08:52:54;6.40;;;3.20;;
38581;SDS011;24349;53.720;10.014;2023-06-14T08:55:22;9.13;;;3.20;;
38581;SDS011;24349;53.720;10.014;2023-06-14T08:57:53;4.22;;;2.53;;
38581;SDS011;24349;53.720;10.014;2023-06-14T09:00:21;6.03;;;2.80;;
38581;SDS011;24349;53.720;10.014;2023-06-14T09:02:49;5.75;;;2.67;;
38581;SDS011;24349;53.720;10.014;2023-06-14T09:05:20;5.57;;;3.20;;
38581;SDS011;24349;53.720;10.014;2023-06-14T09:07:49;4.90;;;2.72;;
38581;SDS011;24349;53.720;10.014;2023-06-14T09:10:16;8.73;;;3.22;;
38581;SDS011;24349;53.720;10.014;2023-06-14T09:12:41;9.18;;;3.22;;
38581;SDS011;24349;53.720;10.014;2023-06-14T09:15:08;8.30;;;3.08;;
38581;SDS011;24349;53.720;10.014;2023-06-14T09:17:35;5.68;;;2.92;;
38581;SDS011;24349;53.720;10.014;2023-06-14T09:20:04;6.72;;;2.92;;
38581;SDS011;24349;53.720;10.014;2023-06-14T09:22:32;9.48;;;3.33;;
38581;SDS011;24349;53.720;10.014;2023-06-14T09:24:58;9.82;;;2.88;;
38581;SDS011;24349;53.720;10.014;2023-06-14T09:27:28;5.32;;;2.75;;
38581;SDS011;24349;53.720;10.014;2023-06-14T09:29:54;7.93;;;2.83;;
38581;SDS011;24349;53.720;10.014;2023-06-14T09:32:20;8.13;;;3.00;;
38581;SDS011;24349;53.720;10.014;2023-06-14T09:34:46;8.93;;;3.08;;
38581;SDS011;24349;53.720;10.014;2023-06-14T09:37:12;6.90;;;3.10;;
38581;SDS011;24349;53.720;10.014;2023-06-14T09:39:51;6.00;;;2.90;;
38581;SDS011;24349;53.720;10.014;2023-06-14T09:42:17;6.80;;;2.70;;
38581;SDS011;24349;53.720;10.014;2023-06-14T09:44:44;7.55;;;2.67;;
38581;SDS011;24349;53.720;10.014;2023-06-14T09:47:15;7.15;;;3.00;;
38581;SDS011;24349;53.720;10.014;2023-06-14T09:49:40;5.47;;;2.83;;
38581;SDS011;24349;53.720;10.014;2023-06-14T09:52:07;6.05;;;3.00;;
38581;SDS011;24349;53.720;10.014;2023-06-14T09:54:42;6.78;;;2.80;;
38581;SDS011;24349;53.720;10.014;2023-06-14T09:57:11;7.05;;;3.08;;
38581;SDS011;24349;53.720;10.014;2023-06-14T09:59:45;5.82;;;3.08;;
38581;SDS011;24349;53.720;10.014;2023-06-14T10:04:46;7.03;;;2.80;;
38581;SDS011;24349;53.720;10.014;2023-06-14T10:07:16;5.65;;;2.95;;
38581;SDS011;24349;53.720;10.014;2023-06-14T10:09:45;6.82;;;2.75;;
38581;SDS011;24349;53.720;10.014;2023-06-14T10:12:15;6.03;;;3.10;;
38581;SDS011;24349;53.720;10.014;2023-06-14T10:14:46;7.03;;;3.40;;
38581;SDS011;24349;53.720;10.014;2023-06-14T10:17:17;6.45;;;2.95;;
38581;SDS011;24349;53.720;10.014;2023-06-14T10:19:51;6.65;;;2.70;;
38581;SDS011;24349;53.720;10.014;2023-06-14T10:22:42;5.60;;;2.88;;
38581;SDS011;24349;53.720;10.014;2023-06-14T10:25:26;6.10;;;3.30;;
38581;SDS011;24349;53.720;10.014;2023-06-14T10:27:56;7.70;;;2.92;;
38581;SDS011;24349;53.720;10.014;2023-06-14T10:34:21;6.50;;;2.92;;
38581;SDS011;24349;53.720;10.014;2023-06-14T10:36:30;6.95;;;2.95;;
38581;SDS011;24349;53.720;10.014;2023-06-14T10:38:58;6.00;;;2.70;;
38581;SDS011;24349;53.720;10.014;2023-06-14T10:41:40;5.88;;;2.58;;
38581;SDS011;24349;53.720;10.014;2023-06-14T10:46:47;6.95;;;2.90;;
38581;SDS011;24349;53.720;10.014;2023-06-14T10:49:17;7.45;;;2.80;;
38581;SDS011;24349;53.720;10.014;2023-06-14T10:51:44;7.32;;;2.88;;
38581;SDS011;24349;53.720;10.014;2023-06-14T10:54:13;6.35;;;2.70;;
38581;SDS011;24349;53.720;10.014;2023-06-14T10:56:49;6.68;;;2.90;;
38581;SDS011;24349;53.720;10.014;2023-06-14T10:59:17;5.72;;;2.67;;
38581;SDS011;24349;53.720;10.014;2023-06-14T11:04:20;6.70;;;2.83;;
38581;SDS011;24349;53.720;10.014;2023-06-14T11:06:49;6.30;;;2.75;;
38581;SDS011;24349;53.720;10.014;2023-06-14T11:12:03;7.05;;;2.83;;
38581;SDS011;24349;53.720;10.014;2023-06-14T11:14:30;8.10;;;2.95;;
38581;SDS011;24349;53.720;10.014;2023-06-14T11:16:56;6.72;;;3.38;;
38581;SDS011;24349;53.720;10.014;2023-06-14T11:19:21;6.75;;;3.95;;
38581;SDS011;24349;53.720;10.014;2023-06-14T11:21:50;8.18;;;3.15;;
38581;SDS011;24349;53.720;10.014;2023-06-14T11:24:16;6.43;;;3.40;;
38581;SDS011;24349;53.720;10.014;2023-06-14T11:26:42;5.65;;;2.50;;
38581;SDS011;24349;53.720;10.014;2023-06-14T11:29:08;10.30;;;6.63;;
38581;SDS011;24349;53.720;10.014;2023-06-14T11:31:34;5.95;;;3.42;;
38581;SDS011;24349;53.720;10.014;2023-06-14T11:34:00;7.78;;;3.65;;
38581;SDS011;24349;53.720;10.014;2023-06-14T11:36:26;5.90;;;2.90;;
38581;SDS011;24349;53.720;10.014;2023-06-14T11:39:01;8.05;;;2.70;;
38581;SDS011;24349;53.720;10.014;2023-06-14T11:41:38;5.57;;;2.70;;
38581;SDS011;24349;53.720;10.014;2023-06-14T11:44:05;6.40;;;2.50;;
38581;SDS011;24349;53.720;10.014;2023-06-14T11:46:32;7.18;;;2.65;;
38581;SDS011;24349;53.720;10.014;2023-06-14T11:48:58;7.88;;;3.00;;
38581;SDS011;24349;53.720;10.014;2023-06-14T11:51:24;9.18;;;2.92;;
38581;SDS011;24349;53.720;10.014;2023-06-14T11:53:50;5.38;;;2.40;;
38581;SDS011;24349;53.720;10.014;2023-06-14T11:56:15;5.07;;;2.42;;
38581;SDS011;24349;53.720;10.014;2023-06-14T11:58:44;5.85;;;2.67;;
38581;SDS011;24349;53.720;10.014;2023-06-14T12:01:14;6.72;;;2.60;;
38581;SDS011;24349;53.720;10.014;2023-06-14T12:03:46;8.63;;;2.80;;
38581;SDS011;24349;53.720;10.014;2023-06-14T12:06:13;6.95;;;2.65;;
38581;SDS011;24349;53.720;10.014;2023-06-14T12:08:39;7.60;;;2.60;;
38581;SDS011;24349;53.720;10.014;2023-06-14T12:11:11;4.70;;;2.30;;
38581;SDS011;24349;53.720;10.014;2023-06-14T12:13:38;8.50;;;2.80;;
38581;SDS011;24349;53.720;10.014;2023-06-14T12:16:08;4.60;;;2.30;;
38581;SDS011;24349;53.720;10.014;2023-06-14T12:18:35;6.22;;;2.50;;
38581;SDS011;24349;53.720;10.014;2023-06-14T12:21:02;8.52;;;2.80;;
38581;SDS011;24349;53.720;10.014;2023-06-14T12:23:47;9.20;;;2.90;;
38581;SDS011;24349;53.720;10.014;2023-06-14T12:26:17;5.90;;;2.67;;
38581;SDS011;24349;53.720;10.014;2023-06-14T12:28:44;6.85;;;2.90;;
38581;SDS011;24349;53.720;10.014;2023-06-14T12:31:11;8.18;;;2.70;;
38581;SDS011;24349;53.720;10.014;2023-06-14T12:33:38;5.97;;;2.63;;
38581;SDS011;24349;53.720;10.014;2023-06-14T12:36:04;6.65;;;2.63;;
38581;SDS011;24349;53.720;10.014;2023-06-14T12:38:32;5.70;;;2.30;;
38581;SDS011;24349;53.720;10.014;2023-06-14T12:40:58;6.40;;;2.40;;
38581;SDS011;24349;53.720;10.014;2023-06-14T12:43:24;5.88;;;2.92;;
38581;SDS011;24349;53.720;10.014;2023-06-14T12:45:49;5.75;;;3.20;;
38581;SDS011;24349;53.720;10.014;2023-06-14T12:48:15;6.25;;;3.10;;
38581;SDS011;24349;53.720;10.014;2023-06-14T12:50:41;8.02;;;2.60;;
38581;SDS011;24349;53.720;10.014;2023-06-14T12:53:07;5.55;;;2.30;;
38581;SDS011;24349;53.720;10.014;2023-06-14T12:55:32;7.53;;;2.63;;
38581;SDS011;24349;53.720;10.014;2023-06-14T12:57:58;4.55;;;2.72;;
38581;SDS011;24349;53.720;10.014;2023-06-14T13:00:24;7.05;;;2.60;;
38581;SDS011;24349;53.720;10.014;2023-06-14T13:02:54;8.20;;;3.88;;
38581;SDS011;24349;53.720;10.014;2023-06-14T13:05:20;9.75;;;3.55;;
38581;SDS011;24349;53.720;10.014;2023-06-14T13:07:46;5.97;;;2.55;;
38581;SDS011;24349;53.720;10.014;2023-06-14T13:10:11;6.60;;;3.08;;
38581;SDS011;24349;53.720;10.014;2023-06-14T13:12:37;6.65;;;2.40;;
38581;SDS011;24349;53.720;10.014;2023-06-14T13:15:03;5.68;;;2.90;;
38581;SDS011;24349;53.720;10.014;2023-06-14T13:17:29;6.78;;;4.28;;
38581;SDS011;24349;53.720;10.014;2023-06-14T13:19:55;5.82;;;2.60;;
38581;SDS011;24349;53.720;10.014;2023-06-14T13:22:20;6.03;;;2.70;;
38581;SDS011;24349;53.720;10.014;2023-06-14T13:24:46;6.47;;;3.15;;
38581;SDS011;24349;53.720;10.014;2023-06-14T13:27:12;5.13;;;2.58;;
38581;SDS011;24349;53.720;10.014;2023-06-14T13:29:39;5.53;;;2.50;;
38581;SDS011;24349;53.720;10.014;2023-06-14T13:32:05;6.60;;;2.58;;
38581;SDS011;24349;53.720;10.014;2023-06-14T13:34:31;6.10;;;2.30;;
38581;SDS011;24349;53.720;10.014;2023-06-14T13:36:56;6.68;;;2.53;;
38581;SDS011;24349;53.720;10.014;2023-06-14T13:39:24;4.35;;;2.25;;
38581;SDS011;24349;53.720;10.014;2023-06-14T13:41:50;7.05;;;2.40;;
38581;SDS011;24349;53.720;10.014;2023-06-14T13:44:15;5.32;;;2.30;;
38581;SDS011;24349;53.720;10.014;2023-06-14T13:46:43;5.53;;;2.60;;
38581;SDS011;24349;53.720;10.014;2023-06-14T13:49:09;4.85;;;2.50;;
38581;SDS011;24349;53.720;10.014;2023-06-14T13:51:37;6.95;;;2.40;;
38581;SDS011;24349;53.720;10.014;2023-06-14T13:54:02;6.07;;;2.30;;
38581;SDS011;24349;53.720;10.014;2023-06-14T13:56:28;6.55;;;2.30;;
38581;SDS011;24349;53.720;10.014;2023-06-14T13:58:55;4.97;;;2.13;;
38581;SDS011;24349;53.720;10.014;2023-06-14T14:01:21;5.03;;;2.20;;
38581;SDS011;24349;53.720;10.014;2023-06-14T14:03:48;5.72;;;2.20;;
38581;SDS011;24349;53.720;10.014;2023-06-14T14:06:15;4.43;;;2.10;;
38581;SDS011;24349;53.720;10.014;2023-06-14T14:08:40;4.28;;;2.25;;
38581;SDS011;24349;53.720;10.014;2023-06-14T14:11:07;8.23;;;2.20;;
38581;SDS011;24349;53.720;10.014;2023-06-14T14:13:33;5.25;;;2.25;;
38581;SDS011;24349;53.720;10.014;2023-06-14T14:16:01;5.53;;;2.42;;
38581;SDS011;24349;53.720;10.014;2023-06-14T14:18:28;5.57;;;2.38;;
38581;SDS011;24349;53.720;10.014;2023-06-14T14:20:53;4.53;;;2.15;;
38581;SDS011;24349;53.720;10.014;2023-06-14T14:23:19;5.40;;;2.42;;
38581;SDS011;24349;53.720;10.014;2023-06-14T14:25:45;5.13;;;2.85;;
38581;SDS011;24349;53.720;10.014;2023-06-14T14:28:11;5.70;;;2.60;;
38581;SDS011;24349;53.720;10.014;2023-06-14T14:30:38;7.00;;;2.60;;
38581;SDS011;24349;53.720;10.014;2023-06-14T14:33:05;8.18;;;2.70;;
38581;SDS011;24349;53.720;10.014;2023-06-14T14:35:31;7.90;;;2.35;;
38581;SDS011;24349;53.720;10.014;2023-06-14T14:37:57;5.30;;;2.40;;
38581;SDS011;24349;53.720;10.014;2023-06-14T14:40:23;6.28;;;2.25;;
38581;SDS011;24349;53.720;10.014;2023-06-14T14:42:49;5.72;;;2.40;;
38581;SDS011;24349;53.720;10.014;2023-06-14T14:45:15;5.53;;;2.45;;
38581;SDS011;24349;53.720;10.014;2023-06-14T14:47:41;8.43;;;2.70;;
38581;SDS011;24349;53.720;10.014;2023-06-14T14:50:06;4.43;;;2.38;;